Time;durP1;ratioP1;P1;durP2;ratioP2;P2;SDS_P1;SDS_P2;PMS_P1;PMS_P2;Temp;Humidity;BMP_temperature;BMP_pressure;BME280_temperature;BME280_humidity;BME280_pressure;Samples;Min_cycle;Max_cycle;Signal;HPM_P1;HPM_P2
2022/05/27 00:00:39;;;;;;;1.75;0.75;;;;;;;17.61;81.05;101805.25;7390460;19;20035;-67
2022/05/27 00:03:08;;;;;;;1.65;0.10;;;;;;;17.61;81.04;101807.91;7390073;19;20323;-70
2022/05/27 00:05:35;;;;;;;2.05;0.20;;;;;;;17.58;80.24;101809.03;7388862;19;20046;-68
2022/05/27 00:08:02;;;;;;;0.55;0.30;;;;;;;17.59;80.39;101800.09;7392122;19;20022;-66
2022/05/27 00:10:30;;;;;;;1.75;1.63;;;;;;;17.62;80.48;101806.91;7389163;19;20592;-69
2022/05/27 00:12:57;;;;;;;1.10;0.20;;;;;;;17.64;80.63;101808.38;7391009;19;20021;-68
2022/05/27 00:15:24;;;;;;;0.60;0.20;;;;;;;17.63;79.89;101805.88;7389624;19;20038;-68
2022/05/27 00:17:52;;;;;;;1.60;0.20;;;;;;;17.61;79.96;101805.25;7392359;19;20015;-68
2022/05/27 00:20:19;;;;;;;1.63;0.20;;;;;;;17.61;79.82;101798.09;7389209;19;20015;-69
2022/05/27 00:22:46;;;;;;;1.48;0.30;;;;;;;17.60;80.46;101796.44;7388989;19;20011;-69
2022/05/27 00:25:15;;;;;;;0.60;0.20;;;;;;;17.60;80.19;101803.59;7388006;19;20031;-68
2022/05/27 00:27:42;;;;;;;2.72;0.30;;;;;;;17.59;80.43;101797.44;7388085;19;20014;-67
2022/05/27 00:30:09;;;;;;;2.00;0.38;;;;;;;17.60;79.89;101804.41;7388211;19;20015;-67
2022/05/27 00:32:38;;;;;;;1.60;1.17;;;;;;;17.57;80.23;101803.91;7387683;19;20011;-66
2022/05/27 00:35:06;;;;;;;1.15;0.40;;;;;;;17.57;81.72;101803.91;7393197;19;20022;-67
2022/05/27 00:37:37;;;;;;;3.30;0.32;;;;;;;17.59;81.11;101808.06;7388467;19;20014;-66
2022/05/27 00:40:09;;;;;;;0.57;0.17;;;;;;;17.57;80.62;101796.75;7388836;19;20034;-68
2022/05/27 00:42:41;;;;;;;2.00;0.30;;;;;;;17.56;80.41;101795.09;7387986;19;20082;-68
2022/05/27 00:45:15;;;;;;;4.23;3.10;;;;;;;17.57;80.70;101790.59;7386063;19;20516;-65
2022/05/27 00:47:43;;;;;;;0.90;0.20;;;;;;;17.59;81.42;101794.75;7387060;19;20569;-67
2022/05/27 00:50:15;;;;;;;0.50;0.20;;;;;;;17.60;81.08;101784.94;7385693;19;20354;-65
2022/05/27 00:52:43;;;;;;;1.05;0.20;;;;;;;17.61;80.63;101783.94;7391230;19;20090;-67
2022/05/27 00:55:16;;;;;;;2.58;0.20;;;;;;;17.59;80.26;101791.25;7388551;19;20496;-66
2022/05/27 00:58:07;;;;;;;1.10;0.73;;;;;;;17.56;80.56;101780.97;7387823;19;20012;-66
2022/05/27 01:00:34;;;;;;;2.25;0.30;;;;;;;17.55;81.12;101782.78;7388374;19;20045;-67
2022/05/27 01:03:04;;;;;;;1.60;0.20;;;;;;;17.57;80.92;101788.78;7390578;19;20525;-66
2022/05/27 01:05:31;;;;;;;0.38;0.20;;;;;;;17.57;80.83;101788.78;7386741;19;20040;-67
2022/05/27 01:08:05;;;;;;;0.70;0.20;;;;;;;17.54;80.73;101784.63;7389738;19;20248;-69
2022/05/27 01:10:55;;;;;;;1.75;0.10;;;;;;;17.44;80.83;101794.66;7387023;19;20010;-68
2022/05/27 01:13:32;;;;;;;0.57;0.25;;;;;;;17.36;81.75;101780.56;7389981;19;20440;-68
2022/05/27 01:16:10;;;;;;;1.75;0.30;;;;;;;17.37;81.95;101784.88;7386934;19;20017;-66
2022/05/27 01:21:51;;;;;;;1.33;0.20;;;;;;;17.34;82.03;101794.03;7393215;19;20011;-68
2022/05/27 01:24:37;;;;;;;2.28;0.20;;;;;;;17.31;82.47;101791.72;7391677;19;20551;-69
2022/05/27 01:27:05;;;;;;;2.75;0.20;;;;;;;17.27;82.87;101795.72;7385994;19;20017;-68
2022/05/27 01:29:48;;;;;;;3.13;0.22;;;;;;;17.28;83.31;101791.22;7389915;19;20034;-69
2022/05/27 01:32:25;;;;;;;2.15;0.20;;;;;;;17.27;83.46;101785.06;7388416;19;20006;-67
2022/05/27 01:34:59;;;;;;;1.38;0.20;;;;;;;17.27;83.53;101793.03;7388950;19;20014;-68
2022/05/27 01:37:41;;;;;;;0.77;0.17;;;;;;;17.23;83.85;101785.59;7383943;19;20016;-66
2022/05/27 01:40:30;;;;;;;3.13;0.30;;;;;;;17.26;84.93;101790.59;7389125;19;20015;-67
2022/05/27 01:43:12;;;;;;;1.08;0.20;;;;;;;17.25;84.53;101794.25;7388801;19;20040;-66
2022/05/27 01:45:48;;;;;;;2.45;0.30;;;;;;;17.20;84.06;101791.25;7389020;19;20014;-69
2022/05/27 01:48:35;;;;;;;1.05;0.30;;;;;;;17.19;84.37;101794.91;7387953;19;20025;-68
2022/05/27 01:51:12;;;;;;;1.98;0.20;;;;;;;17.15;84.47;101794.44;7386842;19;20006;-68
2022/05/27 01:53:50;;;;;;;2.28;0.30;;;;;;;17.13;84.32;101801.75;7387945;19;20094;-68
2022/05/27 01:56:28;;;;;;;0.63;0.20;;;;;;;17.12;84.71;101793.97;7385509;19;20022;-67
2022/05/27 01:59:02;;;;;;;1.50;0.30;;;;;;;17.10;84.79;101796.78;7387303;19;20011;-67
2022/05/27 02:01:43;;;;;;;1.63;0.20;;;;;;;17.08;84.81;101801.44;7387177;19;20018;-67
2022/05/27 02:04:16;;;;;;;0.70;0.22;;;;;;;17.07;84.83;101792.63;7388069;19;20010;-68
2022/05/27 02:06:48;;;;;;;2.38;0.55;;;;;;;17.04;85.08;101800.13;7389160;19;20015;-66
2022/05/27 02:09:23;;;;;;;1.98;0.30;;;;;;;17.01;85.79;101800.47;7384625;19;20014;-69
2022/05/27 02:11:56;;;;;;;2.88;0.60;;;;;;;16.99;85.41;101800.66;7385174;19;20019;-68
2022/05/27 02:14:43;;;;;;;0.75;0.30;;;;;;;16.98;85.15;101800.81;7388961;19;20134;-67
2022/05/27 02:17:16;;;;;;;0.98;0.20;;;;;;;16.98;85.34;101801.63;7385220;19;20011;-67
2022/05/27 02:19:48;;;;;;;;;;;;;;;16.96;85.05;101798.34;7385329;19;20019;-67
2022/05/27 02:22:22;;;;;;;3.80;0.60;;;;;;;16.93;85.47;101803.16;7386593;19;19942;-68
2022/05/27 02:24:57;;;;;;;1.02;0.30;;;;;;;16.93;85.46;101811.13;7383920;19;20015;-67
2022/05/27 02:27:35;;;;;;;2.10;0.30;;;;;;;16.95;85.42;101807.31;7384464;19;20029;-67
2022/05/27 02:30:09;;;;;;;4.10;0.88;;;;;;;16.94;85.26;101805.63;7388296;19;20010;-66
2022/05/27 02:35:53;;;;;;;3.40;0.75;;;;;;;16.91;85.45;101799.84;7384012;19;20017;-67
2022/05/27 02:38:20;;;;;;;4.55;0.38;;;;;;;16.91;85.44;101805.16;7384192;19;20014;-67
2022/05/27 02:41:02;;;;;;;2.95;0.50;;;;;;;16.92;85.34;101804.13;7387554;19;20015;-67
2022/05/27 02:43:40;;;;;;;3.75;0.40;;;;;;;16.88;85.12;101802.81;7385873;19;20082;-67
2022/05/27 02:46:23;;;;;;;3.33;0.30;;;;;;;16.84;85.31;101802.34;7385036;19;20682;-68
2022/05/27 02:49:10;;;;;;;2.00;0.40;;;;;;;16.84;85.23;101801.50;7388882;19;20422;-67
2022/05/27 02:51:50;;;;;;;1.48;0.38;;;;;;;16.82;85.59;101806.16;7393332;19;20014;-66
2022/05/27 02:54:28;;;;;;;1.48;0.32;;;;;;;16.83;85.49;101800.69;7392966;19;20017;-66
2022/05/27 02:57:00;;;;;;;2.50;0.30;;;;;;;16.84;85.18;101796.19;7391520;19;20023;-67
2022/05/27 02:59:29;;;;;;;5.30;0.50;;;;;;;16.84;85.07;101798.84;7393516;19;20313;-66
2022/05/27 03:02:08;;;;;;;2.58;0.35;;;;;;;16.87;85.08;101795.84;7393049;19;20495;-70
2022/05/27 03:04:51;;;;;;;2.38;0.35;;;;;;;16.85;85.07;101796.03;7393094;19;20014;-67
2022/05/27 03:07:32;;;;;;;4.35;1.08;;;;;;;16.88;85.42;101793.03;7392159;19;20468;-66
2022/05/27 03:10:17;;;;;;;2.17;0.40;;;;;;;16.90;84.85;101795.53;7392326;19;20476;-66
2022/05/27 03:13:05;;;;;;;2.45;0.30;;;;;;;16.94;84.84;101791.50;7393589;19;20039;-66
2022/05/27 03:15:40;;;;;;;2.55;0.40;;;;;;;16.93;84.44;101797.81;7396272;19;20124;-66
2022/05/27 03:18:25;;;;;;;2.13;0.50;;;;;;;16.90;84.39;101790.19;7393721;19;20088;-69
2022/05/27 03:21:10;;;;;;;1.05;0.40;;;;;;;16.87;84.22;101793.19;7392180;19;20014;-67
2022/05/27 03:24:03;;;;;;;1.88;0.45;;;;;;;16.85;84.85;101795.19;7394626;19;20014;-68
2022/05/27 03:26:36;;;;;;;3.55;0.70;;;;;;;16.83;85.03;101795.34;7394995;19;20364;-69
2022/05/27 03:29:19;;;;;;;2.22;0.38;;;;;;;16.80;84.68;101798.38;7393178;19;20042;-68
2022/05/27 03:31:55;;;;;;;3.38;0.30;;;;;;;16.79;84.98;101794.03;7392049;19;20015;-67
2022/05/27 03:34:33;;;;;;;2.72;0.40;;;;;;;16.79;84.85;101790.56;7395024;19;20018;-68
2022/05/27 03:37:12;;;;;;;3.92;0.50;;;;;;;16.77;85.02;101795.19;7394202;19;20014;-66
2022/05/27 03:39:43;;;;;;;2.90;0.43;;;;;;;16.80;84.95;101789.56;7392522;19;20018;-66
2022/05/27 03:42:12;;;;;;;3.08;0.63;;;;;;;16.77;84.80;101798.69;7390088;19;20010;-67
2022/05/27 03:44:51;;;;;;;2.45;0.30;;;;;;;16.77;84.88;101793.38;7389218;19;20026;-67
2022/05/27 03:47:18;;;;;;;2.88;0.60;;;;;;;16.72;84.71;101802.84;7394097;19;20369;-67
2022/05/27 03:49:45;;;;;;;2.20;0.40;;;;;;;16.72;84.94;101800.19;7391167;19;20042;-67
2022/05/27 03:52:24;;;;;;;1.88;0.70;;;;;;;16.67;84.64;101800.69;7393253;19;20053;-68
2022/05/27 03:54:55;;;;;;;2.95;0.50;;;;;;;16.63;85.31;101802.03;7391160;19;20030;-68
2022/05/27 03:57:26;;;;;;;3.30;0.45;;;;;;;16.62;85.15;101801.22;7393645;19;20582;-67
2022/05/27 03:59:53;;;;;;;2.42;0.45;;;;;;;16.64;85.08;101811.69;7389389;19;20504;-67
2022/05/27 04:02:20;;;;;;;5.00;0.50;;;;;;;16.63;85.30;101818.81;7392977;19;20018;-67
2022/05/27 04:04:47;;;;;;;0.93;0.40;;;;;;;16.64;84.93;101809.84;7393267;19;20023;-68
2022/05/27 04:07:15;;;;;;;8.95;4.57;;;;;;;16.61;85.50;101825.28;7391345;19;20006;-66
2022/05/27 04:09:43;;;;;;;2.08;0.60;;;;;;;16.65;86.23;101834.59;7389832;19;20546;-68
2022/05/27 04:12:10;;;;;;;1.60;0.50;;;;;;;16.63;85.52;101836.59;7391029;19;20014;-70
2022/05/27 04:14:37;;;;;;;1.52;0.30;;;;;;;16.62;85.17;101835.75;7388077;19;20006;-68
2022/05/27 04:19:41;;;;;;;1.98;0.40;;;;;;;16.66;85.13;101825.59;7388656;19;20014;-68
2022/05/27 04:22:09;;;;;;;3.80;0.43;;;;;;;16.67;84.85;101828.09;7392762;19;20014;-67
2022/05/27 04:24:37;;;;;;;2.90;0.50;;;;;;;16.66;84.76;101839.72;7390678;19;20050;-68
2022/05/27 04:27:14;;;;;;;1.95;0.40;;;;;;;16.70;84.78;101831.44;7390753;19;20046;-67
2022/05/27 04:29:44;;;;;;;1.88;0.40;;;;;;;16.69;84.45;101830.59;7389291;19;20013;-67
2022/05/27 04:32:15;;;;;;;1.48;0.50;;;;;;;16.65;84.53;101831.94;7390950;19;20022;-69
2022/05/27 04:34:43;;;;;;;2.38;0.45;;;;;;;16.64;84.46;101844.41;7391368;19;20638;-68
2022/05/27 04:37:11;;;;;;;1.15;0.40;;;;;;;16.65;84.50;101838.09;7391242;19;20461;-68
2022/05/27 04:39:38;;;;;;;1.13;0.45;;;;;;;16.65;84.21;101839.91;7389936;19;20025;-68
2022/05/27 04:42:06;;;;;;;6.10;0.45;;;;;;;16.66;84.16;101849.53;7389868;19;20014;-66
2022/05/27 04:44:33;;;;;;;1.83;0.45;;;;;;;16.68;83.81;101845.72;7389093;19;20377;-68
2022/05/27 04:47:00;;;;;;;3.00;0.40;;;;;;;16.67;83.53;101853.84;7388450;19;20053;-68
2022/05/27 04:52:05;;;;;;;3.15;0.50;;;;;;;16.62;83.17;101857.03;7390353;19;20467;-70
2022/05/27 04:54:33;;;;;;;1.95;0.43;;;;;;;16.62;83.16;101861.50;7389170;19;20010;-69
2022/05/27 04:57:00;;;;;;;2.63;0.47;;;;;;;16.63;83.22;101861.34;7391189;19;20034;-67
2022/05/27 04:59:27;;;;;;;2.95;0.50;;;;;;;16.60;82.74;101861.69;7388837;19;20385;-67
2022/05/27 05:01:54;;;;;;;1.90;0.50;;;;;;;16.59;82.23;101861.84;7388851;19;20106;-67
2022/05/27 05:04:21;;;;;;;0.77;0.40;;;;;;;16.59;82.14;101864.50;7388538;19;20026;-68
2022/05/27 05:06:48;;;;;;;1.45;0.40;;;;;;;16.56;81.84;101865.63;7390512;19;20010;-68
2022/05/27 05:09:14;;;;;;;1.60;0.50;;;;;;;16.58;82.36;101860.16;7391452;19;20017;-68
2022/05/27 05:11:41;;;;;;;4.22;1.23;;;;;;;16.59;81.50;101862.69;7386244;19;20037;-68
2022/05/27 05:14:08;;;;;;;2.92;0.40;;;;;;;16.59;81.70;101864.50;7392798;19;20332;-67
2022/05/27 05:16:35;;;;;;;2.40;0.40;;;;;;;16.59;81.43;101870.66;7388665;19;20010;-68
2022/05/27 05:19:03;;;;;;;1.80;0.45;;;;;;;16.57;80.82;101871.75;7389719;19;20510;-67
2022/05/27 05:21:31;;;;;;;5.20;0.75;;;;;;;16.56;80.50;101878.91;7387517;19;20450;-67
2022/05/27 05:23:58;;;;;;;1.50;0.35;;;;;;;16.54;80.67;101880.09;7389194;19;20014;-67
2022/05/27 05:26:25;;;;;;;4.38;0.52;;;;;;;16.53;80.46;101881.06;7388203;19;20406;-67
2022/05/27 05:28:52;;;;;;;4.63;0.73;;;;;;;16.53;80.73;101879.25;7389108;19;20022;-69
2022/05/27 05:31:20;;;;;;;2.00;0.50;;;;;;;16.53;80.61;101873.09;7390239;19;20015;-66
2022/05/27 05:33:47;;;;;;;1.90;0.50;;;;;;;16.52;79.67;101888.22;7388681;19;20038;-68
2022/05/27 05:36:14;;;;;;;4.32;0.50;;;;;;;16.51;78.93;101893.69;7390300;19;20042;-69
2022/05/27 05:38:42;;;;;;;2.35;0.60;;;;;;;16.50;79.01;101892.03;7387497;19;20025;-69
2022/05/27 05:41:09;;;;;;;3.22;0.50;;;;;;;16.48;79.54;101884.22;7390281;19;20038;-66
2022/05/27 05:43:36;;;;;;;1.75;0.60;;;;;;;16.49;79.42;101882.41;7387130;19;20472;-68
2022/05/27 05:46:04;;;;;;;3.42;0.40;;;;;;;16.50;79.57;101890.22;7389742;19;20016;-69
2022/05/27 05:48:31;;;;;;;3.35;0.52;;;;;;;16.50;79.21;101895.53;7390356;19;20476;-69
2022/05/27 05:50:58;;;;;;;4.38;0.50;;;;;;;16.53;78.89;101892.53;7386735;19;20046;-67
2022/05/27 05:53:25;;;;;;;4.53;0.50;;;;;;;16.52;78.66;101900.66;7389011;19;20019;-66
2022/05/27 05:55:52;;;;;;;5.95;0.70;;;;;;;16.55;78.31;101898.53;7387354;19;20477;-68
2022/05/27 05:58:19;;;;;;;3.78;0.80;;;;;;;16.56;77.97;101894.84;7389969;19;20037;-69
2022/05/27 06:00:47;;;;;;;4.47;0.60;;;;;;;16.62;77.15;101898.72;7386862;19;20360;-67
2022/05/27 06:03:14;;;;;;;1.35;0.40;;;;;;;16.60;76.24;101906.88;7390522;19;20011;-68
2022/05/27 06:05:42;;;;;;;5.55;0.60;;;;;;;16.60;74.76;101906.88;7385131;19;20029;-68
2022/05/27 06:08:10;;;;;;;5.72;0.50;;;;;;;16.57;73.63;101914.28;7384918;19;20462;-68
2022/05/27 06:10:37;;;;;;;4.07;1.08;;;;;;;16.47;72.11;101914.44;7383003;19;20014;-67
2022/05/27 06:13:05;;;;;;;4.70;0.47;;;;;;;16.45;72.10;101908.47;7390683;19;20034;-67
2022/05/27 06:15:36;;;;;;;3.97;0.60;;;;;;;16.41;71.07;101912.44;7384919;19;20388;-67
2022/05/27 06:18:06;;;;;;;4.30;0.57;;;;;;;16.39;71.68;101925.06;7386760;19;20014;-67
2022/05/27 06:20:34;;;;;;;4.55;0.40;;;;;;;16.35;71.68;101922.91;7387771;19;20105;-67
2022/05/27 06:23:05;;;;;;;5.10;0.50;;;;;;;16.30;71.93;101931.38;7387140;19;20013;-69
2022/05/27 06:25:32;;;;;;;6.03;1.75;;;;;;;16.24;72.65;101926.69;7397075;19;20385;-68
2022/05/27 06:36:11;;;;;;;4.45;0.50;;;;;;;16.32;72.89;101937.34;7396929;19;20006;-69
2022/05/27 06:38:38;;;;;;;3.80;0.47;;;;;;;16.34;72.30;101950.47;7391866;19;20015;-67
2022/05/27 06:41:05;;;;;;;5.38;0.68;;;;;;;16.29;72.46;101942.16;7395291;19;20011;-68
2022/05/27 06:43:33;;;;;;;7.18;0.50;;;;;;;16.30;71.88;101955.28;7394752;19;20391;-67
2022/05/27 06:46:00;;;;;;;2.45;0.47;;;;;;;16.22;70.78;101952.59;7394131;19;20097;-67
2022/05/27 06:48:28;;;;;;;5.22;0.50;;;;;;;16.18;70.76;101953.91;7392884;19;20010;-67
2022/05/27 06:50:55;;;;;;;7.93;0.93;;;;;;;16.16;70.47;101948.75;7392195;19;20011;-68
2022/05/27 06:53:23;;;;;;;6.93;0.88;;;;;;;16.14;70.65;101953.41;7393219;19;20146;-67
2022/05/27 06:55:52;;;;;;;4.68;0.80;;;;;;;16.15;71.27;101948.94;7394210;19;20102;-69
2022/05/27 06:58:21;;;;;;;4.03;0.63;;;;;;;16.17;71.17;101942.44;7391972;19;20014;-70
2022/05/27 07:00:48;;;;;;;7.13;0.80;;;;;;;16.18;70.66;101953.91;7392887;19;20471;-69
2022/05/27 07:03:15;;;;;;;8.55;1.05;;;;;;;16.18;70.43;101961.88;7395793;19;20129;-68
2022/05/27 07:05:42;;;;;;;4.65;0.75;;;;;;;16.19;70.51;101961.72;7396464;19;20014;-70
2022/05/27 07:08:09;;;;;;;8.75;0.98;;;;;;;16.17;69.44;101963.69;7391687;19;20011;-68
2022/05/27 07:10:36;;;;;;;6.60;1.15;;;;;;;16.13;68.68;101972.16;7390745;19;20014;-68
2022/05/27 07:13:07;;;;;;;12.25;2.35;;;;;;;16.10;68.74;101965.31;7395049;19;20007;-68
2022/05/27 07:15:34;;;;;;;13.45;3.40;;;;;;;16.15;68.34;101962.22;7391715;19;20010;-68
2022/05/27 07:18:06;;;;;;;6.68;1.73;;;;;;;16.17;68.13;101968.16;7390873;19;20010;-71
2022/05/27 07:20:33;;;;;;;9.95;1.30;;;;;;;16.16;68.06;101962.03;7390892;19;20025;-70
2022/05/27 07:23:00;;;;;;;9.05;1.05;;;;;;;16.20;68.46;101978.50;7393811;19;20457;-70
2022/05/27 07:25:27;;;;;;;7.78;0.73;;;;;;;16.25;67.16;101969.00;7395312;19;20033;-69
2022/05/27 07:27:54;;;;;;;11.10;0.70;;;;;;;16.21;66.22;101977.47;7392244;19;20018;-69
2022/05/27 07:30:24;;;;;;;8.68;0.80;;;;;;;16.18;66.16;101978.63;7367260;19;20029;-70
2022/05/27 07:32:51;;;;;;;7.88;0.88;;;;;;;16.23;66.21;101983.47;7388215;19;20015;-67
2022/05/27 07:35:20;;;;;;;7.13;0.65;;;;;;;16.29;66.42;101982.00;7389055;19;20570;-67
2022/05/27 07:37:50;;;;;;;4.70;0.60;;;;;;;16.31;65.56;101983.47;7390151;19;20018;-69
2022/05/27 07:40:28;;;;;;;4.95;0.70;;;;;;;16.32;65.18;101979.84;7392959;19;20006;-68
2022/05/27 07:42:55;;;;;;;10.57;1.02;;;;;;;16.35;64.83;101987.50;7389549;19;20467;-68
2022/05/27 07:45:27;;;;;;;7.05;1.08;;;;;;;16.41;64.73;101988.66;7387990;19;20021;-67
2022/05/27 07:48:00;;;;;;;2.72;0.50;;;;;;;16.50;63.59;101988.53;7387468;19;20074;-68
2022/05/27 07:50:28;;;;;;;6.03;0.50;;;;;;;16.53;63.75;101998.81;7388304;19;20013;-68
2022/05/27 07:52:55;;;;;;;11.50;0.50;;;;;;;16.57;63.01;101992.19;7389045;19;20006;-68
2022/05/27 07:55:22;;;;;;;5.75;0.50;;;;;;;16.54;63.07;101987.22;7389301;19;20010;-71
2022/05/27 07:57:50;;;;;;;7.50;1.00;;;;;;;16.58;62.86;101985.03;7387206;19;20086;-69
2022/05/27 08:00:22;;;;;;;7.05;0.85;;;;;;;16.58;62.89;101985.03;7389820;19;20038;-68
2022/05/27 08:02:49;;;;;;;7.90;1.65;;;;;;;16.60;62.87;101989.25;7388907;19;20306;-67
2022/05/27 08:05:19;;;;;;;17.92;5.13;;;;;;;16.64;63.40;101997.72;7390731;19;20007;-69
2022/05/27 08:07:47;;;;;;;10.20;1.10;;;;;;;16.68;62.60;101996.41;7388342;19;20083;-69
2022/05/27 08:10:17;;;;;;;6.03;0.98;;;;;;;16.75;64.97;101999.25;7389639;19;20374;-68
2022/05/27 08:12:47;;;;;;;13.73;2.35;;;;;;;16.83;64.89;101996.56;7391292;19;20079;-68
2022/05/27 08:15:15;;;;;;;4.70;0.52;;;;;;;16.88;62.89;101995.09;7389599;19;20038;-68
2022/05/27 08:17:43;;;;;;;7.00;0.70;;;;;;;16.94;63.51;101996.25;7387078;19;20038;-67
2022/05/27 08:20:14;;;;;;;7.18;0.77;;;;;;;16.97;61.06;102006.56;7389111;19;20314;-68
2022/05/27 08:22:41;;;;;;;5.43;0.50;;;;;;;16.91;59.27;102012.56;7391757;19;20444;-66
2022/05/27 08:25:08;;;;;;;4.57;0.50;;;;;;;16.89;60.12;102017.19;7387469;19;20010;-68
2022/05/27 08:27:36;;;;;;;6.22;0.60;;;;;;;16.86;59.85;102009.56;7391816;19;20033;-67
2022/05/27 08:30:05;;;;;;;4.10;0.50;;;;;;;16.80;59.68;102024.34;7389285;19;20018;-68
2022/05/27 08:32:32;;;;;;;11.00;1.02;;;;;;;16.75;61.48;102020.50;7385256;19;20078;-69
2022/05/27 08:38:01;;;;;;;6.70;0.70;;;;;;;16.68;57.68;102025.63;7388269;19;20058;-67
2022/05/27 08:40:46;;;;;;;;;;;;;;;16.60;57.38;102022.97;7387224;19;21263;-67
2022/05/27 08:43:34;;;;;;;11.10;0.60;;;;;;;16.60;58.67;102018.50;7389232;19;19910;-66
2022/05/27 08:46:14;;;;;;;10.77;0.70;;;;;;;16.63;57.63;102031.44;7385276;19;20015;-69
2022/05/27 08:48:44;;;;;;;11.68;1.83;;;;;;;16.63;57.71;102023.47;7388779;19;20007;-69
2022/05/27 08:51:42;;;;;;;13.60;1.45;;;;;;;16.72;58.83;102028.78;7388297;19;20118;-68
2022/05/27 08:54:20;;;;;;;10.40;0.90;;;;;;;16.81;57.38;102025.16;7387553;19;20007;-68
2022/05/27 08:59:40;;;;;;;11.32;1.33;;;;;;;16.94;54.73;102025.50;7387353;19;20010;-69
2022/05/27 09:02:16;;;;;;;6.28;0.95;;;;;;;16.95;56.27;102029.84;7388368;19;20014;-70
2022/05/27 09:04:48;;;;;;;6.75;0.63;;;;;;;16.93;54.66;102029.16;7389025;19;20025;-69
2022/05/27 09:07:34;;;;;;;7.60;0.85;;;;;;;16.94;54.35;102036.97;7387167;19;20010;-68
2022/05/27 09:10:05;;;;;;;9.70;1.02;;;;;;;16.88;53.87;102026.16;7388800;19;20018;-67
2022/05/27 09:12:42;;;;;;;7.55;0.60;;;;;;;16.88;54.48;102032.31;7388613;19;20011;-67
2022/05/27 09:15:27;;;;;;;7.22;0.70;;;;;;;16.96;53.25;102037.66;7360896;19;20345;-69
2022/05/27 09:18:12;;;;;;;6.22;0.80;;;;;;;17.08;53.51;102041.63;7386467;19;20496;-68
2022/05/27 09:21:06;;;;;;;5.00;0.45;;;;;;;17.21;54.23;102035.00;7389918;19;20328;-70
2022/05/27 09:23:51;;;;;;;10.63;0.85;;;;;;;17.28;53.17;102039.47;7385585;19;20029;-70
2022/05/27 09:26:29;;;;;;;8.50;0.90;;;;;;;17.28;53.09;102041.31;7387475;19;20021;-70
2022/05/27 09:29:09;;;;;;;11.50;1.15;;;;;;;17.26;53.58;102040.66;7389601;19;20027;-68
2022/05/27 09:31:42;;;;;;;8.20;0.82;;;;;;;17.34;52.68;102036.16;7386249;19;20027;-66
2022/05/27 09:34:11;;;;;;;5.78;0.60;;;;;;;17.43;53.95;102037.81;7385185;19;20313;-69
2022/05/27 09:36:43;;;;;;;10.98;2.47;;;;;;;17.54;52.86;102039.31;7387266;19;20006;-68
2022/05/27 09:39:19;;;;;;;35.70;13.40;;;;;;;17.71;52.09;102045.47;7384774;19;20082;-69
2022/05/27 09:41:51;;;;;;;13.02;2.53;;;;;;;17.81;51.99;102041.63;7385027;19;20019;-68
2022/05/27 09:44:31;;;;;;;7.03;0.90;;;;;;;17.94;51.61;102047.25;7388394;19;20806;-69
2022/05/27 09:47:00;;;;;;;8.32;0.60;;;;;;;18.08;50.50;102044.88;7386070;19;20010;-67
2022/05/27 09:49:27;;;;;;;8.07;0.70;;;;;;;18.09;50.78;102033.19;7383846;19;20006;-69
2022/05/27 09:51:54;;;;;;;9.48;0.93;;;;;;;18.14;50.68;102045.00;7387463;19;20393;-66
2022/05/27 09:54:34;;;;;;;8.23;1.02;;;;;;;18.19;50.88;102045.31;7384946;19;20013;-70
2022/05/27 09:57:10;;;;;;;8.82;0.60;;;;;;;18.30;49.82;102052.09;7384001;19;20513;-68
2022/05/27 09:59:40;;;;;;;6.82;0.40;;;;;;;18.32;49.71;102052.78;7382902;19;20010;-71
2022/05/27 10:02:15;;;;;;;7.35;0.93;;;;;;;18.40;52.45;102042.06;7385282;19;20050;-68
2022/05/27 10:04:57;;;;;;;7.75;0.60;;;;;;;18.51;50.22;102048.84;7387991;19;20077;-69
2022/05/27 10:07:28;;;;;;;7.75;0.60;;;;;;;18.53;48.11;102052.19;7386508;19;20013;-68
2022/05/27 10:09:56;;;;;;;7.65;0.85;;;;;;;18.53;47.99;102042.34;7387449;19;20042;-67
2022/05/27 10:12:32;;;;;;;4.60;0.50;;;;;;;18.52;48.06;102050.50;7383127;19;20026;-67
2022/05/27 10:15:00;;;;;;;5.82;0.50;;;;;;;18.53;48.69;102050.34;7386695;19;20138;-69
2022/05/27 10:17:37;;;;;;;8.55;0.75;;;;;;;18.58;49.44;102041.84;7385665;19;20015;-70
2022/05/27 10:20:17;;;;;;;7.80;0.70;;;;;;;18.64;49.42;102055.28;7386050;19;20352;-68
2022/05/27 10:23:00;;;;;;;6.10;0.40;;;;;;;18.67;46.87;102054.97;7384066;19;20011;-70
2022/05/27 10:25:33;;;;;;;13.37;1.03;;;;;;;18.63;47.30;102048.31;7387697;19;20123;-67
2022/05/27 10:28:00;;;;;;;6.18;0.43;;;;;;;18.64;47.01;102043.81;7385409;19;20010;-67
2022/05/27 10:30:38;;;;;;;5.07;0.60;;;;;;;18.59;46.50;102033.66;7389287;19;20010;-69
2022/05/27 10:33:16;;;;;;;6.97;0.95;;;;;;;18.56;46.55;102039.34;7386099;19;20014;-68
2022/05/27 10:35:44;;;;;;;9.75;1.00;;;;;;;18.59;46.28;102028.31;7388284;19;20021;-69
2022/05/27 10:38:27;;;;;;;11.30;1.05;;;;;;;18.60;46.86;102038.00;7383370;19;20021;-69
2022/05/27 10:41:02;;;;;;;6.80;0.70;;;;;;;18.65;46.93;102032.97;7383433;19;20209;-69
2022/05/27 10:43:46;;;;;;;6.93;0.75;;;;;;;18.74;45.88;102028.44;7384854;19;20046;-68
2022/05/27 10:46:21;;;;;;;8.98;0.60;;;;;;;18.74;47.40;102023.91;7383952;19;20038;-68
2022/05/27 10:49:14;;;;;;;6.03;0.70;;;;;;;18.79;46.12;102034.88;7384011;19;20014;-68
2022/05/27 10:52:01;;;;;;;6.50;0.65;;;;;;;18.83;46.55;102027.38;7385928;19;20340;-68
2022/05/27 10:54:42;;;;;;;9.30;3.10;;;;;;;18.89;45.93;102026.66;7384778;19;20078;-68
2022/05/27 11:02:58;;;;;;;5.40;0.70;;;;;;;19.02;46.61;102029.56;7387373;19;20019;-70
2022/05/27 11:05:26;;;;;;;6.82;0.60;;;;;;;19.00;46.90;102028.06;7383676;19;20026;-68
2022/05/27 11:08:21;;;;;;;5.78;0.60;;;;;;;19.08;46.73;102033.34;7385129;19;20026;-69
2022/05/27 11:10:59;;;;;;;4.22;0.50;;;;;;;19.09;47.44;102035.84;7388814;19;20125;-69
2022/05/27 11:16:40;;;;;;;7.60;0.75;;;;;;;19.22;47.37;102025.38;7389377;19;20035;-69
2022/05/27 11:19:20;;;;;;;5.80;0.57;;;;;;;19.19;44.48;102033.78;7393694;19;20033;-67
2022/05/27 11:22:15;;;;;;;4.68;0.88;;;;;;;19.18;46.06;102028.59;7391746;19;20039;-68
2022/05/27 11:24:53;;;;;;;6.95;0.60;;;;;;;19.25;46.71;102020.72;7390703;19;20523;-67
2022/05/27 11:27:41;;;;;;;11.43;1.02;;;;;;;19.26;46.79;102017.84;7393289;19;20042;-70
2022/05/27 11:30:21;;;;;;;5.50;0.52;;;;;;;19.30;46.88;102018.34;7393107;19;20015;-70
2022/05/27 11:33:07;;;;;;;6.90;0.65;;;;;;;19.33;48.08;102015.28;7392694;19;20010;-72
2022/05/27 11:35:56;;;;;;;9.13;0.70;;;;;;;19.40;47.35;102018.91;7390599;19;20443;-68
2022/05/27 11:38:26;;;;;;;7.25;0.80;;;;;;;19.44;47.19;102014.84;7391892;19;20006;-68
2022/05/27 11:41:17;;;;;;;6.80;0.50;;;;;;;19.52;45.09;102026.31;7394230;19;20101;-68
2022/05/27 11:43:53;;;;;;;7.45;0.65;;;;;;;19.53;45.24;102030.66;7391015;19;20090;-69
2022/05/27 11:46:43;;;;;;;7.68;0.70;;;;;;;19.52;44.73;102022.81;7386325;19;20015;-67
2022/05/27 11:49:35;;;;;;;7.05;0.70;;;;;;;19.53;45.00;102021.81;7393684;19;20429;-68
2022/05/27 11:52:36;;;;;;;7.93;0.63;;;;;;;19.51;44.41;102021.97;7390741;19;20102;-67
2022/05/27 11:55:41;;;;;;;9.15;0.70;;;;;;;19.53;45.40;102032.47;7386617;19;20746;-68
2022/05/27 11:58:34;;;;;;;6.38;0.93;;;;;;;19.50;44.78;102016.84;7391555;19;20079;-69
2022/05/27 12:01:04;;;;;;;;;;;;;;;19.49;48.41;102017.84;7391168;19;20014;-67
2022/05/27 12:03:43;;;;;;;8.80;1.35;;;;;;;19.44;46.13;102022.88;7389921;19;20313;-68
2022/05/27 12:06:17;;;;;;;7.22;0.75;;;;;;;19.40;43.81;102027.72;7389019;19;20022;-68
2022/05/27 12:08:58;;;;;;;4.97;0.50;;;;;;;19.45;44.03;102024.56;7389978;19;20010;-70
2022/05/27 12:11:33;;;;;;;7.97;0.60;;;;;;;19.48;44.01;102038.38;7387901;19;20014;-66
2022/05/27 12:14:16;;;;;;;4.75;0.50;;;;;;;19.50;41.06;102020.34;7388118;19;20346;-68
2022/05/27 12:16:44;;;;;;;;;;;;;;;19.46;40.94;102023.53;7391445;19;20574;-67
2022/05/27 12:19:36;;;;;;;7.13;0.70;;;;;;;19.43;41.48;102021.19;7389725;19;19915;-68
2022/05/27 12:22:16;;;;;;;5.78;0.77;;;;;;;19.44;42.62;102028.22;7389229;19;20023;-68
2022/05/27 12:24:48;;;;;;;5.90;1.00;;;;;;;19.48;42.70;102032.19;7389904;19;20089;-68
2022/05/27 12:27:18;;;;;;;5.10;0.60;;;;;;;19.46;42.12;102019.03;7389472;19;20010;-68